Time;durP1;ratioP1;P1;durP2;ratioP2;P2;SDS_P1;SDS_P2;PMS_P1;PMS_P2;Temp;Humidity;BMP_temperature;BMP_pressure;BME280_temperature;BME280_humidity;BME280_pressure;Samples;Min_cycle;Max_cycle;Signal;HPM_P1;HPM_P2
2022/03/21 00:01:25;;;;;;;21.05;8.23;;;10.80;77.10;;;;;;5029656;28;20021;-75
2022/03/21 00:03:50;;;;;;;20.40;8.45;;;10.80;77.10;;;;;;5049775;28;20025;-74
2022/03/21 00:06:16;;;;;;;16.08;8.07;;;10.80;77.10;;;;;;5048675;28;20508;-75
2022/03/21 00:08:43;;;;;;;17.33;8.63;;;10.80;77.40;;;;;;5048855;28;20021;-75
2022/03/21 00:11:09;;;;;;;19.55;8.40;;;10.80;77.20;;;;;;5030832;28;20087;-75
2022/03/21 00:13:36;;;;;;;16.88;8.02;;;10.80;77.20;;;;;;5047931;28;20033;-75
2022/03/21 00:16:01;;;;;;;26.67;7.57;;;10.70;77.40;;;;;;5049160;28;20032;-75
2022/03/21 00:18:27;;;;;;;15.77;7.65;;;10.70;77.40;;;;;;5054050;28;20029;-74
2022/03/21 00:20:54;;;;;;;17.27;7.97;;;10.70;77.30;;;;;;5051849;28;20474;-74
2022/03/21 00:23:21;;;;;;;20.90;8.95;;;10.70;77.40;;;;;;5049211;28;20163;-75
2022/03/21 00:25:47;;;;;;;19.38;8.30;;;10.70;77.00;;;;;;5047706;28;20037;-74
2022/03/21 00:28:12;;;;;;;14.55;8.15;;;10.70;77.10;;;;;;5047431;28;20028;-74
2022/03/21 00:30:40;;;;;;;19.25;8.52;;;10.70;77.00;;;;;;5031377;28;20090;-75
2022/03/21 00:33:07;;;;;;;14.85;8.40;;;10.70;77.40;;;;;;5048815;28;20021;-74
2022/03/21 00:35:33;;;;;;;17.92;8.50;;;10.70;77.30;;;;;;5030926;28;20389;-75
2022/03/21 00:37:59;;;;;;;15.15;7.32;;;10.70;77.10;;;;;;5031200;28;20024;-74
2022/03/21 00:40:25;;;;;;;15.70;7.63;;;10.70;77.00;;;;;;5050030;28;20022;-74
2022/03/21 00:42:51;;;;;;;16.67;7.50;;;10.70;77.20;;;;;;5049789;28;20044;-75
2022/03/21 00:45:19;;;;;;;13.07;7.07;;;10.70;77.30;;;;;;5051597;28;20049;-75
2022/03/21 00:47:47;;;;;;;15.68;8.27;;;10.70;77.10;;;;;;5048541;28;20559;-75
2022/03/21 00:50:16;;;;;;;20.30;9.27;;;10.70;77.30;;;;;;5051881;28;20037;-75
2022/03/21 00:52:47;;;;;;;16.05;7.55;;;10.70;77.10;;;;;;5051913;28;20079;-75
2022/03/21 00:55:14;;;;;;;18.20;7.97;;;10.70;76.90;;;;;;5052767;28;20436;-75
2022/03/21 00:57:42;;;;;;;17.80;8.25;;;10.70;76.80;;;;;;5052424;28;20076;-74
2022/03/21 01:00:12;;;;;;;15.30;8.07;;;10.70;76.90;;;;;;5051794;28;20124;-75
2022/03/21 01:02:38;;;;;;;19.80;8.20;;;10.70;76.90;;;;;;5051633;28;20032;-74
2022/03/21 01:05:05;;;;;;;20.05;8.30;;;10.70;77.30;;;;;;5052358;28;20025;-74
2022/03/21 01:07:31;;;;;;;19.63;8.45;;;10.70;77.10;;;;;;5052449;28;20025;-74
2022/03/21 01:09:57;;;;;;;14.88;7.68;;;10.60;77.10;;;;;;5052704;28;20052;-75
2022/03/21 01:12:23;;;;;;;14.32;7.90;;;10.60;76.70;;;;;;5050809;28;20055;-75
2022/03/21 01:14:48;;;;;;;30.40;7.70;;;10.70;76.80;;;;;;5040505;28;20029;-75
2022/03/21 01:17:14;;;;;;;17.35;8.02;;;10.60;76.70;;;;;;5046552;28;20024;-74
2022/03/21 01:19:40;;;;;;;17.48;8.23;;;10.70;77.10;;;;;;5020182;28;20348;-75
2022/03/21 01:22:06;;;;;;;17.60;8.50;;;10.60;77.00;;;;;;5044309;28;20115;-75
2022/03/21 01:24:33;;;;;;;24.90;7.65;;;10.60;76.90;;;;;;5049921;28;20100;-75
2022/03/21 01:26:59;;;;;;;17.25;7.95;;;10.60;77.00;;;;;;5051917;28;20029;-75
2022/03/21 01:29:24;;;;;;;16.15;8.10;;;10.60;77.00;;;;;;5051839;28;20052;-75
2022/03/21 01:31:50;;;;;;;18.10;8.23;;;10.60;76.80;;;;;;5051304;28;20056;-74
2022/03/21 01:34:16;;;;;;;18.30;8.43;;;10.60;76.80;;;;;;5032938;28;20441;-75
2022/03/21 01:36:42;;;;;;;20.23;8.85;;;10.60;77.00;;;;;;5051585;28;20025;-75
2022/03/21 01:39:07;;;;;;;19.65;8.95;;;10.60;76.90;;;;;;5052164;28;20050;-74
2022/03/21 01:41:33;;;;;;;19.98;7.40;;;10.60;76.80;;;;;;5051900;28;20550;-75
2022/03/21 01:44:11;;;;;;;17.25;8.48;;;10.60;76.90;;;;;;5035921;28;20516;-75
2022/03/21 01:46:38;;;;;;;17.52;8.00;;;10.60;77.00;;;;;;5034032;28;20111;-74
2022/03/21 01:49:06;;;;;;;16.02;8.05;;;10.60;77.00;;;;;;5033442;28;20013;-74
2022/03/21 01:51:32;;;;;;;16.00;7.18;;;10.60;76.80;;;;;;5051505;28;20040;-75
2022/03/21 01:56:45;;;;;;;18.15;7.88;;;10.60;76.80;;;;;;5066596;28;20106;-75
2022/03/21 01:59:12;;;;;;;17.17;7.97;;;10.60;76.70;;;;;;5066220;28;20068;-75
2022/03/21 02:01:39;;;;;;;16.08;8.45;;;10.60;76.60;;;;;;5033420;28;20052;-75
2022/03/21 02:04:05;;;;;;;15.00;7.82;;;10.60;76.70;;;;;;5033204;28;20025;-75
2022/03/21 02:06:31;;;;;;;18.92;8.60;;;10.60;77.50;;;;;;5051461;28;20104;-75
2022/03/21 02:08:58;;;;;;;17.80;8.43;;;10.50;77.00;;;;;;5031759;28;20028;-74
2022/03/21 02:11:28;;;;;;;14.40;6.72;;;10.50;76.90;;;;;;5050511;28;20051;-74
2022/03/21 02:17:23;;;;;;;16.42;7.35;;;10.50;76.60;;;;;;5070197;22;20559;-78
2022/03/21 02:19:49;;;;;;;16.70;7.63;;;10.50;76.90;;;;;;5090876;28;20023;-79
2022/03/21 02:22:50;;;;;;;15.82;7.47;;;10.50;76.60;;;;;;5090405;28;20362;-78
2022/03/21 02:25:32;;;;;;;;;;;10.50;76.70;;;;;;5091009;28;20020;-78
2022/03/21 02:28:04;;;;;;;16.15;7.30;;;10.50;76.60;;;;;;5090697;28;19947;-79
2022/03/21 02:30:33;;;;;;;12.35;6.80;;;10.50;76.90;;;;;;5090384;28;20020;-79
2022/03/21 02:33:00;;;;;;;17.65;8.05;;;10.50;76.90;;;;;;5109386;28;20061;-79
2022/03/21 02:35:27;;;;;;;16.50;7.47;;;10.50;76.90;;;;;;5110886;28;20027;-81
2022/03/21 02:37:55;;;;;;;16.98;8.07;;;10.50;76.70;;;;;;5110694;28;20016;-78
2022/03/21 02:40:21;;;;;;;16.25;8.10;;;10.50;76.70;;;;;;5111850;28;20145;-78
2022/03/21 02:42:47;;;;;;;18.98;8.52;;;10.50;76.60;;;;;;5096222;28;20467;-80
2022/03/21 02:45:13;;;;;;;18.00;8.07;;;10.50;76.60;;;;;;5090375;28;20012;-78
2022/03/21 02:47:39;;;;;;;13.73;7.30;;;10.50;76.70;;;;;;5105404;28;20102;-79
2022/03/21 02:50:08;;;;;;;15.73;7.63;;;10.50;76.50;;;;;;5097363;28;20057;-78
2022/03/21 02:52:36;;;;;;;14.63;7.25;;;10.50;76.80;;;;;;5090047;28;20489;-79
2022/03/21 02:55:02;;;;;;;19.60;7.07;;;10.50;76.60;;;;;;5107541;28;20023;-79
2022/03/21 02:57:31;;;;;;;15.52;7.20;;;10.50;76.60;;;;;;5110880;28;20023;-80
2022/03/21 02:59:57;;;;;;;19.75;7.57;;;10.50;76.70;;;;;;5110051;28;20068;-79
2022/03/21 03:02:22;;;;;;;24.42;8.10;;;10.50;76.70;;;;;;5096123;28;20023;-78
2022/03/21 03:04:48;;;;;;;14.45;7.78;;;10.50;76.80;;;;;;5089704;28;20054;-79
2022/03/21 03:07:14;;;;;;;16.75;7.78;;;10.50;76.60;;;;;;5090014;28;20073;-78
2022/03/21 03:09:39;;;;;;;18.02;7.85;;;10.50;76.60;;;;;;5089360;28;20503;-79
2022/03/21 03:12:05;;;;;;;15.50;7.55;;;10.50;76.20;;;;;;5082815;28;20043;-79
2022/03/21 03:14:31;;;;;;;15.02;7.80;;;10.40;76.40;;;;;;5077515;28;20109;-79
2022/03/21 03:16:57;;;;;;;13.77;6.85;;;10.40;76.50;;;;;;5079716;28;20182;-79
2022/03/21 03:19:22;;;;;;;14.70;7.63;;;10.50;76.60;;;;;;5084595;28;20016;-79
2022/03/21 03:21:50;;;;;;;15.32;7.43;;;10.40;76.40;;;;;;5077486;28;20081;-78
2022/03/21 03:24:19;;;;;;;12.02;6.78;;;10.40;76.40;;;;;;5084449;28;20016;-78
2022/03/21 03:26:45;;;;;;;19.00;7.80;;;10.40;76.40;;;;;;5085053;28;20393;-79
2022/03/21 03:29:10;;;;;;;18.92;6.63;;;10.50;76.40;;;;;;5083760;28;20027;-79
2022/03/21 03:31:36;;;;;;;14.63;7.18;;;10.40;76.40;;;;;;5089319;28;20039;-79
2022/03/21 03:34:02;;;;;;;16.98;7.13;;;10.40;76.30;;;;;;5089932;28;20046;-79
2022/03/21 03:36:28;;;;;;;17.05;7.45;;;10.40;76.50;;;;;;5074819;28;20025;-80
2022/03/21 03:38:53;;;;;;;15.48;7.05;;;10.40;76.30;;;;;;5077776;28;20020;-78
2022/03/21 03:41:19;;;;;;;14.00;7.03;;;10.40;76.20;;;;;;5072819;28;20024;-79
2022/03/21 03:43:47;;;;;;;14.95;8.10;;;10.40;76.40;;;;;;5081673;28;20119;-79
2022/03/21 03:46:13;;;;;;;14.20;7.38;;;10.40;76.40;;;;;;5079670;28;20078;-79
2022/03/21 03:48:41;;;;;;;16.73;7.70;;;10.40;76.50;;;;;;5077066;28;20082;-79
2022/03/21 03:51:07;;;;;;;18.35;7.80;;;10.40;76.40;;;;;;5071385;28;20040;-79
2022/03/21 03:53:33;;;;;;;15.15;7.10;;;10.40;77.10;;;;;;5085776;28;20020;-79
2022/03/21 03:55:59;;;;;;;14.70;6.90;;;10.40;76.50;;;;;;5066322;28;20028;-79
2022/03/21 03:58:24;;;;;;;18.67;8.40;;;10.40;76.40;;;;;;5081341;28;20369;-79
2022/03/21 04:00:51;;;;;;;18.30;8.05;;;10.40;76.20;;;;;;5057199;28;20485;-79
2022/03/21 04:06:02;;;;;;;14.32;8.13;;;10.40;76.40;;;;;;5081372;28;20032;-79
2022/03/21 04:08:28;;;;;;;15.43;7.95;;;10.40;76.40;;;;;;5077009;28;20029;-79
2022/03/21 04:10:54;;;;;;;18.75;8.90;;;10.40;76.20;;;;;;5081063;28;20037;-80
2022/03/21 04:13:19;;;;;;;19.77;7.95;;;10.40;76.40;;;;;;5080651;28;20028;-79
2022/03/21 04:15:45;;;;;;;20.52;8.07;;;10.40;76.40;;;;;;5077750;28;20056;-79
2022/03/21 04:18:11;;;;;;;19.88;7.53;;;10.40;76.50;;;;;;5082222;28;20043;-79
2022/03/21 04:20:37;;;;;;;17.63;7.95;;;10.40;76.30;;;;;;5077816;28;20028;-79
2022/03/21 04:23:04;;;;;;;17.88;7.80;;;10.40;77.10;;;;;;5081774;28;20284;-79
2022/03/21 04:25:30;;;;;;;16.08;7.30;;;10.40;76.60;;;;;;5081481;28;20095;-78
2022/03/21 04:27:55;;;;;;;14.57;7.80;;;10.30;76.20;;;;;;5081595;28;20162;-79
2022/03/21 04:30:21;;;;;;;16.45;7.75;;;10.30;76.10;;;;;;5091795;28;20477;-78
2022/03/21 04:32:47;;;;;;;19.95;7.32;;;10.30;76.30;;;;;;5066683;28;20027;-78
2022/03/21 04:35:13;;;;;;;17.70;7.63;;;10.30;76.30;;;;;;5091202;28;20091;-79
2022/03/21 04:37:40;;;;;;;18.90;7.85;;;10.40;76.00;;;;;;5087425;28;20047;-79
2022/03/21 04:40:07;;;;;;;14.80;7.53;;;10.40;76.20;;;;;;5087476;28;20389;-78
2022/03/21 04:42:37;;;;;;;16.35;8.02;;;10.30;76.10;;;;;;5092550;28;20130;-79
2022/03/21 04:45:05;;;;;;;16.48;8.15;;;10.30;76.10;;;;;;5088939;28;20102;-79
2022/03/21 04:47:31;;;;;;;12.85;6.82;;;10.30;76.10;;;;;;5084756;28;20447;-79
2022/03/21 04:49:57;;;;;;;15.27;7.68;;;10.30;76.00;;;;;;5091701;28;20028;-79
2022/03/21 04:52:23;;;;;;;16.23;7.60;;;10.30;76.10;;;;;;5091746;28;20073;-79
2022/03/21 04:54:49;;;;;;;16.25;8.23;;;10.30;76.30;;;;;;5060498;28;20068;-79
2022/03/21 04:57:19;;;;;;;18.30;7.80;;;10.30;76.10;;;;;;5087218;28;20020;-80
2022/03/21 04:59:44;;;;;;;14.73;7.60;;;10.30;76.10;;;;;;5084221;28;20028;-80
2022/03/21 05:02:10;;;;;;;17.90;7.28;;;10.30;76.40;;;;;;5065029;28;20522;-80
2022/03/21 05:04:37;;;;;;;12.85;7.18;;;10.30;76.30;;;;;;5086443;28;20020;-80
2022/03/21 05:07:03;;;;;;;17.20;8.50;;;10.30;76.10;;;;;;5082307;28;20089;-80
2022/03/21 05:09:28;;;;;;;15.43;7.13;;;10.30;75.90;;;;;;5084393;28;20024;-80
2022/03/21 05:11:54;;;;;;;13.57;7.00;;;10.30;76.00;;;;;;5080115;28;20128;-81
2022/03/21 05:14:19;;;;;;;15.15;8.23;;;10.30;76.00;;;;;;5084083;28;20028;-81
2022/03/21 05:16:49;;;;;;;13.63;7.43;;;10.30;75.80;;;;;;5080026;28;20028;-80
2022/03/21 05:19:15;;;;;;;20.37;7.40;;;10.30;75.90;;;;;;5078855;28;20098;-81
2022/03/21 05:21:41;;;;;;;17.58;7.43;;;10.30;75.90;;;;;;5082838;28;20032;-81
2022/03/21 05:32:21;;;;;;;15.90;7.68;;;10.30;76.10;;;;;;5081224;28;20402;-81
2022/03/21 05:37:31;;;;;;;13.50;6.95;;;10.30;76.00;;;;;;5084884;28;20055;-81
2022/03/21 05:42:50;;;;;;;18.50;8.52;;;10.30;76.10;;;;;;5073664;28;20058;-80
2022/03/21 05:45:19;;;;;;;17.25;8.00;;;10.30;75.80;;;;;;5084431;28;20068;-81
2022/03/21 05:50:35;;;;;;;17.27;8.13;;;10.30;76.10;;;;;;5083269;28;20093;-81
2022/03/21 05:53:02;;;;;;;18.13;8.25;;;10.30;75.80;;;;;;5081455;28;20111;-80
2022/03/21 05:55:32;;;;;;;19.65;8.38;;;10.30;75.80;;;;;;5081769;28;20124;-81
2022/03/21 05:57:58;;;;;;;16.70;8.88;;;10.30;76.50;;;;;;5079680;28;20021;-80
2022/03/21 06:00:27;;;;;;;22.10;9.32;;;10.30;75.90;;;;;;5081367;28;20027;-81
2022/03/21 06:02:54;;;;;;;19.17;7.72;;;10.30;75.70;;;;;;5079591;28;20031;-80
2022/03/21 06:05:21;;;;;;;18.30;8.55;;;10.30;75.90;;;;;;5079448;28;20372;-81
2022/03/21 06:07:48;;;;;;;20.85;7.93;;;10.30;76.00;;;;;;5084856;28;20461;-81
2022/03/21 06:10:14;;;;;;;16.73;8.43;;;10.30;75.80;;;;;;5081655;28;20066;-80
2022/03/21 06:12:40;;;;;;;17.00;8.20;;;10.30;75.90;;;;;;5083327;28;20024;-80
2022/03/21 06:15:07;;;;;;;17.30;8.80;;;10.30;75.70;;;;;;5081785;28;20025;-81
2022/03/21 06:17:40;;;;;;;14.68;7.60;;;10.30;76.10;;;;;;5079956;28;20114;-81
2022/03/21 06:20:14;;;;;;;13.70;8.07;;;10.30;75.70;;;;;;5089051;28;20025;-81
2022/03/21 06:22:40;;;;;;;13.77;7.65;;;10.30;76.10;;;;;;5079092;28;20545;-81
2022/03/21 06:25:07;;;;;;;17.55;8.85;;;10.30;75.70;;;;;;5082968;28;20039;-81
2022/03/21 06:27:39;;;;;;;19.17;9.02;;;10.30;76.10;;;;;;5061090;28;20112;-81
2022/03/21 06:30:07;;;;;;;17.13;8.45;;;10.30;75.80;;;;;;5063073;28;20039;-81
2022/03/21 06:32:33;;;;;;;16.65;8.32;;;10.30;75.90;;;;;;5078790;28;20377;-81
2022/03/21 06:34:58;;;;;;;13.15;7.03;;;10.30;76.20;;;;;;5074762;28;20024;-80
2022/03/21 06:37:24;;;;;;;21.92;8.35;;;10.30;76.20;;;;;;5082669;28;20032;-81
2022/03/21 06:39:50;;;;;;;15.48;8.15;;;10.30;76.30;;;;;;5079946;28;20036;-81
2022/03/21 06:42:17;;;;;;;20.38;8.93;;;10.40;76.20;;;;;;5080984;28;20362;-81
2022/03/21 06:44:43;;;;;;;21.95;9.75;;;10.30;76.60;;;;;;5080585;28;20020;-81
2022/03/21 06:47:09;;;;;;;23.38;9.27;;;10.40;76.50;;;;;;5085189;28;20025;-81
2022/03/21 06:49:35;;;;;;;17.98;8.60;;;10.40;76.40;;;;;;5081935;28;20365;-81
2022/03/21 06:52:08;;;;;;;23.27;9.00;;;10.40;76.40;;;;;;5077526;28;20047;-81
2022/03/21 06:54:34;;;;;;;18.88;9.38;;;10.40;76.30;;;;;;5080180;28;20076;-81
2022/03/21 06:57:00;;;;;;;18.65;8.18;;;10.40;76.10;;;;;;5080419;28;20119;-81
2022/03/21 06:59:25;;;;;;;16.55;7.95;;;10.40;76.60;;;;;;5080058;28;20810;-81
2022/03/21 07:01:51;;;;;;;18.33;8.02;;;10.50;76.20;;;;;;5072525;28;20027;-79
2022/03/21 07:04:17;;;;;;;16.83;8.25;;;10.50;75.70;;;;;;5080336;28;20081;-79
2022/03/21 07:06:43;;;;;;;20.48;7.53;;;10.50;74.80;;;;;;5090696;28;20024;-79
2022/03/21 07:09:08;;;;;;;17.02;8.57;;;10.50;75.00;;;;;;5090822;28;20496;-79
2022/03/21 07:11:35;;;;;;;22.25;8.02;;;10.60;74.40;;;;;;5090355;28;20047;-79
2022/03/21 07:14:04;;;;;;;17.08;8.68;;;10.60;74.30;;;;;;5089662;28;20046;-79
2022/03/21 07:16:30;;;;;;;15.60;8.05;;;10.60;74.00;;;;;;5090330;28;20024;-79
2022/03/21 07:18:56;;;;;;;19.50;7.78;;;10.60;74.00;;;;;;5095869;28;20034;-80
2022/03/21 07:21:21;;;;;;;15.25;7.40;;;10.70;73.70;;;;;;5092980;28;20111;-79
2022/03/21 07:23:47;;;;;;;21.27;8.48;;;10.70;73.90;;;;;;5089808;28;20024;-79
2022/03/21 07:26:13;;;;;;;23.08;8.43;;;10.70;73.60;;;;;;5090015;28;20024;-80
2022/03/21 07:28:39;;;;;;;19.38;9.50;;;10.70;73.70;;;;;;5089909;28;20028;-79
2022/03/21 07:31:09;;;;;;;21.42;9.02;;;10.80;73.40;;;;;;5089999;28;20031;-79
2022/03/21 07:33:36;;;;;;;17.42;8.70;;;10.70;73.40;;;;;;5091155;28;20051;-79
2022/03/21 07:36:03;;;;;;;18.08;8.35;;;10.80;73.60;;;;;;5110507;28;20119;-79
2022/03/21 07:38:29;;;;;;;23.65;9.90;;;10.80;73.40;;;;;;5091772;28;20034;-80
2022/03/21 07:40:56;;;;;;;18.75;9.32;;;10.80;73.70;;;;;;5109674;28;20080;-79
2022/03/21 07:43:22;;;;;;;16.48;8.40;;;10.80;74.00;;;;;;5109957;28;20098;-79
2022/03/21 07:48:32;;;;;;;20.02;9.98;;;10.90;74.50;;;;;;5108666;28;20035;-82
2022/03/21 07:50:58;;;;;;;19.83;8.65;;;10.90;74.30;;;;;;5089691;28;20069;-80
2022/03/21 07:53:24;;;;;;;21.42;8.45;;;10.90;74.50;;;;;;5088580;28;20024;-80
2022/03/21 07:55:50;;;;;;;18.50;9.23;;;10.90;74.50;;;;;;5088261;28;20488;-79
2022/03/21 07:58:16;;;;;;;19.25;8.85;;;10.90;74.60;;;;;;5089087;28;20035;-79
2022/03/21 08:00:41;;;;;;;15.27;8.13;;;10.90;74.80;;;;;;5089821;28;20044;-79
2022/03/21 08:03:12;;;;;;;22.70;8.82;;;10.90;74.90;;;;;;5089670;28;20490;-79
2022/03/21 08:05:38;;;;;;;17.30;9.15;;;10.90;75.10;;;;;;5105631;28;20057;-79
2022/03/21 08:08:04;;;;;;;25.55;8.85;;;11.00;75.30;;;;;;5091450;28;20059;-79
2022/03/21 08:10:29;;;;;;;22.13;7.85;;;11.00;75.30;;;;;;5085952;28;20064;-80
2022/03/21 08:12:56;;;;;;;21.05;8.73;;;11.00;76.00;;;;;;5089636;28;20377;-80
2022/03/21 08:15:23;;;;;;;25.17;7.35;;;11.00;75.90;;;;;;5085042;28;20438;-79
2022/03/21 08:17:56;;;;;;;14.07;8.27;;;11.00;75.50;;;;;;5076154;28;20074;-79
2022/03/21 08:20:23;;;;;;;15.52;7.13;;;11.00;75.80;;;;;;5082640;28;20016;-81
2022/03/21 08:22:49;;;;;;;19.42;7.90;;;11.00;75.50;;;;;;5089091;28;20465;-80
2022/03/21 08:25:22;;;;;;;22.92;8.32;;;11.00;76.10;;;;;;5089033;28;20168;-80
2022/03/21 08:27:48;;;;;;;22.38;9.38;;;11.00;76.00;;;;;;5089299;28;20032;-79
2022/03/21 08:30:15;;;;;;;17.10;8.07;;;10.90;76.10;;;;;;5087560;28;20503;-79
2022/03/21 08:32:48;;;;;;;19.80;8.77;;;10.90;76.60;;;;;;5089066;28;20111;-79
2022/03/21 08:35:18;;;;;;;15.18;8.10;;;10.90;76.80;;;;;;5087218;28;20036;-79
2022/03/21 08:37:44;;;;;;;16.52;7.90;;;10.90;76.90;;;;;;5089327;28;20056;-79
2022/03/21 08:40:11;;;;;;;25.60;10.13;;;10.90;75.70;;;;;;5089057;28;20490;-79
2022/03/21 08:42:37;;;;;;;18.98;8.10;;;10.90;76.40;;;;;;5088983;28;20024;-79
2022/03/21 08:45:04;;;;;;;20.85;8.63;;;10.90;76.60;;;;;;5089508;28;20074;-79
2022/03/21 08:47:30;;;;;;;11.13;6.18;;;10.90;76.40;;;;;;5089188;28;20029;-80
2022/03/21 08:53:18;;;;;;;18.45;8.02;;;10.90;76.50;;;;;;5111885;22;20089;-77
2022/03/21 08:55:43;;;;;;;16.65;8.88;;;10.90;75.60;;;;;;5089081;28;20028;-76
2022/03/21 08:58:09;;;;;;;14.25;7.70;;;10.90;76.80;;;;;;5087633;28;20027;-77
2022/03/21 09:00:35;;;;;;;16.42;7.50;;;10.90;76.20;;;;;;5090946;28;20020;-76
2022/03/21 09:03:00;;;;;;;21.88;9.13;;;10.90;75.60;;;;;;5090420;28;20020;-75
2022/03/21 09:05:27;;;;;;;12.10;7.30;;;10.90;76.50;;;;;;5109135;28;20030;-76
2022/03/21 09:07:52;;;;;;;13.50;7.07;;;11.00;76.30;;;;;;5090616;28;20028;-76
2022/03/21 09:10:18;;;;;;;11.65;6.38;;;11.00;76.70;;;;;;5093103;28;20090;-75
2022/03/21 09:12:44;;;;;;;17.85;8.00;;;11.00;76.40;;;;;;5112944;28;20031;-76
2022/03/21 09:15:10;;;;;;;15.18;7.85;;;11.00;76.20;;;;;;5113072;28;20016;-76
2022/03/21 09:17:38;;;;;;;19.25;7.88;;;11.00;77.20;;;;;;5094622;28;20027;-76
2022/03/21 09:20:05;;;;;;;16.15;8.73;;;11.00;76.30;;;;;;5094061;28;20500;-76
2022/03/21 09:22:31;;;;;;;15.43;7.53;;;11.00;76.60;;;;;;5127484;27;20023;-76
2022/03/21 09:24:57;;;;;;;16.77;8.00;;;11.00;77.30;;;;;;5133303;27;20452;-76
2022/03/21 09:27:23;;;;;;;19.42;9.25;;;11.00;76.80;;;;;;5115231;27;20030;-75
2022/03/21 09:29:49;;;;;;;15.50;8.50;;;11.10;77.40;;;;;;5114447;27;20023;-76
2022/03/21 09:32:16;;;;;;;18.45;8.70;;;11.10;77.50;;;;;;5114566;27;20108;-75
2022/03/21 09:34:43;;;;;;;17.13;8.63;;;11.10;77.70;;;;;;5130333;27;20046;-76
2022/03/21 09:37:08;;;;;;;16.98;8.55;;;11.10;76.80;;;;;;5112864;28;20059;-75
2022/03/21 09:39:34;;;;;;;26.48;9.25;;;11.10;78.30;;;;;;5092415;28;20546;-76
2022/03/21 09:42:01;;;;;;;22.88;8.45;;;11.20;76.60;;;;;;5112231;28;20035;-76
2022/03/21 09:44:28;;;;;;;19.20;8.40;;;11.20;77.90;;;;;;5112761;28;20027;-74
2022/03/21 09:46:55;;;;;;;16.92;8.85;;;11.20;76.40;;;;;;5112904;28;20045;-76
2022/03/21 09:49:25;;;;;;;15.30;9.05;;;11.20;76.00;;;;;;5112570;28;20111;-75
2022/03/21 09:51:53;;;;;;;14.18;5.88;;;11.20;75.50;;;;;;5112080;27;20073;-76
2022/03/21 09:54:19;;;;;;;15.27;8.45;;;11.20;75.50;;;;;;5134166;27;20046;-75
2022/03/21 09:56:45;;;;;;;14.65;7.22;;;11.30;74.80;;;;;;5116783;27;20487;-76
2022/03/21 09:59:11;;;;;;;4.05;2.47;;;11.30;74.50;;;;;;5135193;27;20019;-75
2022/03/21 10:01:38;;;;;;;14.50;7.68;;;11.30;75.00;;;;;;5116043;27;20027;-75
2022/03/21 10:04:04;;;;;;;17.25;8.35;;;11.30;75.00;;;;;;5135068;27;20111;-77
2022/03/21 10:06:34;;;;;;;17.50;8.55;;;11.40;75.70;;;;;;5115945;27;20063;-76
2022/03/21 10:09:06;;;;;;;27.08;9.80;;;11.40;75.60;;;;;;5112290;28;20023;-74
2022/03/21 10:11:34;;;;;;;11.88;5.28;;;11.40;75.60;;;;;;5093770;28;20126;-74
2022/03/21 10:14:22;;;;;;;19.85;8.57;;;11.40;76.30;;;;;;5094163;28;20034;-74
2022/03/21 10:17:03;;;;;;;21.42;8.50;;;11.50;74.80;;;;;;5112341;28;20027;-75
2022/03/21 10:19:41;;;;;;;14.80;8.68;;;11.50;75.50;;;;;;5093737;28;20472;-75
2022/03/21 10:22:11;;;;;;;15.90;7.70;;;11.50;75.80;;;;;;5117734;27;20503;-75
2022/03/21 10:24:40;;;;;;;14.43;5.80;;;11.50;76.20;;;;;;5111861;28;20058;-75
2022/03/21 10:27:06;;;;;;;19.80;8.85;;;11.50;75.40;;;;;;5111835;28;20016;-75
2022/03/21 10:29:48;;;;;;;8.95;4.13;;;11.50;75.20;;;;;;5093655;28;20100;-75
2022/03/21 10:32:30;;;;;;;17.70;8.07;;;11.50;76.10;;;;;;5093065;28;20041;-75
2022/03/21 10:35:08;;;;;;;19.90;8.15;;;11.40;74.10;;;;;;5111484;27;20020;-75
2022/03/21 10:38:04;;;;;;;15.95;7.68;;;11.50;73.90;;;;;;5131817;27;20106;-74
2022/03/21 10:40:41;;;;;;;19.48;9.57;;;11.50;74.70;;;;;;5130766;27;20055;-75
2022/03/21 10:43:09;;;;;;;23.80;9.38;;;11.60;74.10;;;;;;5131600;27;20027;-75
2022/03/21 10:45:35;;;;;;;20.38;10.57;;;11.60;76.10;;;;;;5131814;27;20574;-75
2022/03/21 10:48:04;;;;;;;23.05;8.77;;;11.70;75.30;;;;;;5117004;27;20119;-74
2022/03/21 10:50:47;;;;;;;19.13;5.97;;;11.70;76.30;;;;;;5110796;27;20044;-74
2022/03/21 10:53:15;;;;;;;21.95;9.35;;;11.70;74.60;;;;;;5111225;28;20131;-74
2022/03/21 10:55:44;;;;;;;15.25;7.78;;;11.80;73.80;;;;;;5110729;28;20016;-74
2022/03/21 10:58:10;;;;;;;16.40;8.25;;;11.80;76.30;;;;;;5111625;28;20020;-75
2022/03/21 11:00:36;;;;;;;15.63;9.20;;;11.80;77.20;;;;;;5110737;28;20027;-75
2022/03/21 11:03:16;;;;;;;17.40;8.45;;;11.80;77.40;;;;;;5110890;28;20418;-74
2022/03/21 11:05:50;;;;;;;18.85;7.93;;;11.80;77.30;;;;;;5092372;28;20117;-75
2022/03/21 11:08:18;;;;;;;13.65;4.70;;;11.90;75.50;;;;;;5111074;28;20031;-74
2022/03/21 11:10:45;;;;;;;20.08;9.32;;;12.00;73.00;;;;;;5110494;28;20039;-74
2022/03/21 11:13:12;;;;;;;19.92;9.68;;;12.00;72.50;;;;;;5110207;28;20019;-75
2022/03/21 11:15:40;;;;;;;6.90;2.45;;;12.10;73.90;;;;;;5110640;28;20051;-74
2022/03/21 11:18:07;;;;;;;25.00;9.43;;;12.00;74.50;;;;;;5110624;28;20114;-74
2022/03/21 11:20:33;;;;;;;17.85;7.13;;;12.10;76.40;;;;;;5110128;27;20012;-74
2022/03/21 11:23:00;;;;;;;14.27;7.45;;;12.10;75.00;;;;;;5110577;27;20019;-75
2022/03/21 11:25:45;;;;;;;18.95;10.00;;;12.20;75.30;;;;;;5109431;28;20024;-75
2022/03/21 11:28:37;;;;;;;16.58;9.75;;;12.20;76.00;;;;;;5109902;28;20228;-74
2022/03/21 11:31:09;;;;;;;15.43;8.13;;;12.20;76.80;;;;;;5091966;28;20400;-74
2022/03/21 11:33:50;;;;;;;21.80;9.15;;;12.20;76.50;;;;;;5109477;28;20031;-74
2022/03/21 11:36:16;;;;;;;18.15;9.00;;;12.30;77.30;;;;;;5110528;27;20031;-74
2022/03/21 11:38:47;;;;;;;23.02;9.13;;;12.30;77.40;;;;;;5110376;28;20115;-74
2022/03/21 11:41:21;;;;;;;15.25;7.80;;;12.30;77.40;;;;;;5109685;28;20062;-73
2022/03/21 11:44:08;;;;;;;13.38;3.35;;;12.30;75.30;;;;;;5092379;28;20028;-73
2022/03/21 11:46:37;;;;;;;19.80;8.52;;;12.40;74.20;;;;;;5109349;28;20042;-73
2022/03/21 11:49:25;;;;;;;17.70;10.15;;;12.40;74.20;;;;;;5110269;28;20372;-73
2022/03/21 11:51:57;;;;;;;26.00;9.30;;;12.50;74.80;;;;;;5097761;28;20374;-72
2022/03/21 11:54:25;;;;;;;17.88;9.32;;;12.40;76.00;;;;;;5090395;28;20048;-73
2022/03/21 11:56:55;;;;;;;18.77;9.18;;;12.40;76.50;;;;;;5071450;28;20044;-76
2022/03/21 11:59:35;;;;;;;23.77;10.35;;;12.40;76.70;;;;;;5092047;28;20064;-72
2022/03/21 12:02:13;;;;;;;19.58;9.68;;;12.40;76.80;;;;;;5109430;28;20030;-73
2022/03/21 12:04:54;;;;;;;18.77;9.80;;;12.50;76.50;;;;;;5092426;28;20461;-73
2022/03/21 12:07:20;;;;;;;20.60;9.55;;;12.50;74.80;;;;;;5108085;28;20035;-73
2022/03/21 12:09:50;;;;;;;18.77;9.25;;;12.50;75.90;;;;;;5110213;28;20024;-73
2022/03/21 12:12:17;;;;;;;20.65;10.23;;;12.50;76.00;;;;;;5108889;28;20028;-73
2022/03/21 12:14:54;;;;;;;21.20;9.90;;;12.50;75.40;;;;;;5091515;28;20031;-74
2022/03/21 12:17:22;;;;;;;23.67;9.50;;;12.50;77.20;;;;;;5109639;28;20537;-73
2022/03/21 12:19:48;;;;;;;18.75;9.57;;;12.50;76.80;;;;;;5109613;28;20026;-73
2022/03/21 12:22:29;;;;;;;34.30;10.85;;;12.50;75.70;;;;;;5096499;28;20021;-73
2022/03/21 12:24:55;;;;;;;20.10;8.73;;;12.50;77.40;;;;;;5090013;28;20166;-73
2022/03/21 12:27:55;;;;;;;22.92;9.80;;;12.50;77.70;;;;;;5089648;28;20017;-73
2022/03/21 12:30:20;;;;;;;28.08;9.35;;;12.50;77.60;;;;;;5090380;28;20024;-73
2022/03/21 12:32:56;;;;;;;20.92;10.13;;;12.50;78.20;;;;;;5105255;28;20425;-72
2022/03/21 12:35:47;;;;;;;17.00;8.52;;;12.50;78.00;;;;;;5108268;28;20031;-73
2022/03/21 12:38:23;;;;;;;23.67;9.57;;;12.50;78.30;;;;;;5090096;28;20156;-74
2022/03/21 12:40:52;;;;;;;14.93;8.65;;;12.50;77.20;;;;;;5109743;28;20118;-72
2022/03/21 12:43:26;;;;;;;24.00;9.20;;;12.60;78.20;;;;;;5090329;28;20494;-72
2022/03/21 12:46:07;;;;;;;22.10;8.55;;;12.60;78.20;;;;;;5113878;28;20085;-73
2022/03/21 12:48:40;;;;;;;16.63;8.30;;;12.60;78.30;;;;;;5113587;28;20182;-72
2022/03/21 12:51:07;;;;;;;15.15;8.43;;;12.60;78.40;;;;;;5112388;28;20035;-73
2022/03/21 12:53:44;;;;;;;16.40;7.15;;;12.60;78.40;;;;;;5074241;28;20036;-73
2022/03/21 12:56:15;;;;;;;19.23;9.57;;;12.60;78.00;;;;;;5093600;28;20048;-72
2022/03/21 12:58:45;;;;;;;21.50;8.63;;;12.60;77.60;;;;;;5127079;27;20019;-74
2022/03/21 13:01:17;;;;;;;16.98;8.75;;;12.60;77.60;;;;;;5115363;27;20054;-72
2022/03/21 13:03:43;;;;;;;21.02;9.40;;;12.60;77.40;;;;;;5133946;27;20019;-73
2022/03/21 13:11:54;;;;;;;20.27;8.23;;;12.60;78.10;;;;;;5113096;28;20362;-74
2022/03/21 13:14:21;;;;;;;21.30;9.55;;;12.60;77.50;;;;;;5112809;28;20062;-73
2022/03/21 13:16:50;;;;;;;18.70;8.63;;;12.60;77.50;;;;;;5105174;28;20027;-73
2022/03/21 13:19:25;;;;;;;17.17;8.47;;;12.60;76.40;;;;;;5104746;28;20028;-72
2022/03/21 13:21:55;;;;;;;20.27;9.85;;;12.60;77.30;;;;;;5110970;28;20312;-73